Terminal Aerodrome Forecast
Issued by NWS

Home | Current Version | Previous Version | Text Only | Print | Product List | Glossary On
Versions: 1 2 3 4 5 6 7 8 9 10 11 12 13 14 15 16 17 18 19 20 21 22 23 24
000
FTPA31 PHFO 260804 AAA
TAFHNY
TAF AMD
PHNY 260804Z 2608/2706 04013G18KT P6SM FEW025
     FM261200 04011KT P6SM FEW025
     FM262000 04014G22KT P6SM SCT025
     FM270000 04018G26KT P6SM SCT025
     FM270500 04012G20KT P6SM FEW025=

USA.gov is the U.S. government's official web portal to all federal, state and local government web resources and services.